createdAt,value
2018-03-28T00:00:47.503Z,94662.71
2018-03-28T00:03:13.871Z,94655.02
2018-03-28T00:05:40.273Z,94652.44
2018-03-28T00:08:06.604Z,94653.77
2018-03-28T00:10:33.092Z,94651.20
2018-03-28T00:12:59.739Z,94658.27
2018-03-28T00:15:26.158Z,94654.72
2018-03-28T00:17:52.552Z,94640.57
2018-03-28T00:20:19.019Z,94648.17
2018-03-28T00:22:45.414Z,94641.50
2018-03-28T00:25:11.822Z,94648.41
2018-03-28T00:27:38.143Z,94642.81
2018-03-28T00:30:04.482Z,94641.03
2018-03-28T00:32:31.022Z,94640.06
2018-03-28T00:34:57.385Z,94654.01
2018-03-28T00:37:23.807Z,94644.02
2018-03-28T00:39:50.169Z,94641.63
2018-03-28T00:42:16.495Z,94640.22
2018-03-28T00:44:42.929Z,94622.94
2018-03-28T00:47:09.319Z,94628.56
2018-03-28T00:49:35.655Z,94639.80
2018-03-28T00:52:01.990Z,94645.81
2018-03-28T00:54:28.392Z,94650.48
2018-03-28T00:56:54.730Z,94649.75
2018-03-28T00:59:21.174Z,94642.52
2018-03-28T01:01:47.511Z,94639.36
2018-03-28T01:04:13.894Z,94642.44
2018-03-28T01:06:40.378Z,94638.40
2018-03-28T01:09:06.859Z,94642.95
2018-03-28T01:11:33.196Z,94641.35
2018-03-28T01:13:59.553Z,94643.56
2018-03-28T01:16:25.869Z,94636.55
2018-03-28T01:18:52.241Z,94634.39
2018-03-28T01:21:18.601Z,94624.59
2018-03-28T01:23:44.975Z,94620.61
2018-03-28T01:26:11.316Z,94623.90
2018-03-28T01:28:37.718Z,94626.05
2018-03-28T01:31:04.112Z,94624.00
2018-03-28T01:33:30.505Z,94616.06
2018-03-28T01:35:56.901Z,94610.05
2018-03-28T01:38:23.227Z,94611.87
2018-03-28T01:40:49.591Z,94604.41
2018-03-28T01:43:16.026Z,94600.38
2018-03-28T01:45:42.405Z,94592.03
2018-03-28T01:48:08.904Z,94602.51
2018-03-28T01:50:35.222Z,94593.19
2018-03-28T01:53:01.583Z,94598.38
2018-03-28T01:55:27.990Z,94607.48
2018-03-28T01:57:54.333Z,94599.47
2018-03-28T02:00:20.792Z,94606.84
2018-03-28T02:02:47.156Z,94604.78
2018-03-28T02:05:13.522Z,94595.06
2018-03-28T02:07:40.010Z,94602.23
2018-03-28T02:10:06.391Z,94600.60
2018-03-28T02:12:32.723Z,94594.18
2018-03-28T02:14:59.071Z,94593.30
2018-03-28T02:17:25.557Z,94592.94
2018-03-28T02:19:51.962Z,94590.20
2018-03-28T02:22:18.281Z,94592.55
2018-03-28T02:24:44.609Z,94608.98
2018-03-28T02:27:11.051Z,94602.88
2018-03-28T02:29:37.617Z,94605.25
2018-03-28T02:32:04.024Z,94603.23
2018-03-28T02:34:30.357Z,94585.00
2018-03-28T02:36:56.687Z,94581.47
2018-03-28T02:39:23.055Z,94586.62
2018-03-28T02:41:49.447Z,94588.87
2018-03-28T02:44:16.067Z,94587.04
2018-03-28T02:46:42.561Z,94575.03
2018-03-28T02:49:08.913Z,94585.53
2018-03-28T02:51:35.270Z,94581.56
2018-03-28T02:54:01.602Z,94594.00
2018-03-28T02:56:27.982Z,94597.91
2018-03-28T02:58:54.395Z,94592.81
2018-03-28T03:01:20.746Z,94600.39
2018-03-28T03:03:47.120Z,94593.47
2018-03-28T03:06:13.509Z,94603.31
2018-03-28T03:08:39.872Z,94604.77
2018-03-28T03:11:06.218Z,94605.06
2018-03-28T03:13:32.538Z,94605.41
2018-03-28T03:15:58.913Z,94600.78
2018-03-28T03:18:25.250Z,94591.39
2018-03-28T03:20:51.574Z,94608.02
2018-03-28T03:23:18.122Z,94611.17
2018-03-28T03:25:44.449Z,94605.49
2018-03-28T03:28:10.778Z,94605.13
2018-03-28T03:30:37.115Z,94605.43
2018-03-28T03:33:03.575Z,94602.30
2018-03-28T03:35:29.915Z,94592.06
2018-03-28T03:37:56.351Z,94604.73
2018-03-28T03:40:22.684Z,94599.08
2018-03-28T03:42:49.001Z,94594.78
2018-03-28T03:45:15.365Z,94595.25
2018-03-28T03:47:41.802Z,94591.63
2018-03-28T03:50:08.278Z,94593.38
2018-03-28T03:52:34.697Z,94596.13
2018-03-28T03:55:01.032Z,94598.72
2018-03-28T03:57:27.419Z,94589.67
2018-03-28T03:59:53.807Z,94593.01
2018-03-28T04:02:20.170Z,94593.63
2018-03-28T04:04:46.526Z,94596.64
2018-03-28T04:07:12.850Z,94599.98
2018-03-28T04:09:39.210Z,94603.59
2018-03-28T04:12:05.538Z,94596.89
2018-03-28T04:14:31.945Z,94603.41
2018-03-28T04:16:58.285Z,94587.28
2018-03-28T04:19:24.663Z,94602.36
2018-03-28T04:21:51.035Z,94609.20
2018-03-28T04:24:17.364Z,94608.24
2018-03-28T04:26:43.793Z,94603.20
2018-03-28T04:29:10.260Z,94602.63
2018-03-28T04:31:36.591Z,94600.12
2018-03-28T04:34:02.912Z,94606.81
2018-03-28T04:36:29.285Z,94609.58
2018-03-28T04:38:55.767Z,94612.70
2018-03-28T04:41:22.302Z,94614.95
2018-03-28T04:43:48.715Z,94614.23
2018-03-28T04:46:15.122Z,94614.91
2018-03-28T04:48:41.507Z,94612.34
2018-03-28T04:51:07.959Z,94613.64
2018-03-28T04:53:34.416Z,94616.48
2018-03-28T04:56:00.738Z,94616.68
2018-03-28T04:58:27.163Z,94615.50
2018-03-28T05:00:53.492Z,94625.20
2018-03-28T05:03:19.835Z,94633.69
2018-03-28T05:05:46.232Z,94629.05
2018-03-28T05:08:12.629Z,94633.13
2018-03-28T05:10:39.059Z,94634.48
2018-03-28T05:13:05.387Z,94642.48
2018-03-28T05:15:31.721Z,94636.41
2018-03-28T05:17:59.135Z,94641.79
2018-03-28T05:20:25.764Z,94638.73
2018-03-28T05:22:52.167Z,94634.40
2018-03-28T05:25:18.499Z,94634.86
2018-03-28T05:27:44.897Z,94637.55
2018-03-28T05:30:11.375Z,94633.91
2018-03-28T05:32:38.083Z,94634.98
2018-03-28T05:37:25.960Z,94652.46
2018-03-28T05:39:54.717Z,94633.19
2018-03-28T05:42:21.867Z,94636.13
2018-03-28T05:44:48.233Z,94639.36
2018-03-28T05:47:14.574Z,94638.59
2018-03-28T05:49:41.047Z,94630.33
2018-03-28T05:52:08.486Z,94625.59
2018-03-28T05:54:34.930Z,94624.70
2018-03-28T05:57:01.396Z,94644.16
2018-03-28T05:59:27.831Z,94626.77
2018-03-28T06:01:54.285Z,94652.02
2018-03-28T06:04:20.661Z,94639.11
2018-03-28T06:06:47.209Z,94627.30
2018-03-28T06:09:13.896Z,94642.84
2018-03-28T06:11:40.398Z,94629.33
2018-03-28T06:14:07.519Z,94628.59
2018-03-28T06:16:34.036Z,94628.66
2018-03-28T06:19:00.537Z,94616.12
2018-03-28T06:21:27.012Z,94634.59
2018-03-28T06:23:53.415Z,94640.91
2018-03-28T06:26:19.758Z,94633.86
2018-03-28T06:28:46.210Z,94622.56
2018-03-28T06:31:12.728Z,94636.30
2018-03-28T06:33:39.221Z,94631.04
2018-03-28T06:36:05.757Z,94625.88
2018-03-28T06:38:32.228Z,94630.38
2018-03-28T06:40:58.732Z,94636.63
2018-03-28T06:43:25.191Z,94638.69
2018-03-28T06:45:51.676Z,94610.26
2018-03-28T06:48:18.162Z,94637.13
2018-03-28T06:50:44.597Z,94621.66
2018-03-28T06:53:11.271Z,94633.30
2018-03-28T06:55:37.678Z,94643.44
2018-03-28T06:58:04.101Z,94637.04
2018-03-28T07:00:38.685Z,94632.43
2018-03-28T07:03:05.183Z,94633.89
2018-03-28T07:05:31.909Z,94631.94
2018-03-28T07:07:58.760Z,94641.81
2018-03-28T07:10:25.409Z,94627.22
2018-03-28T07:12:52.207Z,94635.98
2018-03-28T07:15:19.088Z,94637.59
2018-03-28T07:17:45.492Z,94649.07
2018-03-28T07:20:11.920Z,94652.31
2018-03-28T07:22:38.421Z,94656.83
2018-03-28T07:25:04.796Z,94648.70
2018-03-28T07:27:31.533Z,94647.88
2018-03-28T07:29:58.236Z,94653.64
2018-03-28T07:32:24.649Z,94647.47
2018-03-28T07:34:51.485Z,94655.06
2018-03-28T07:37:18.227Z,94650.93
2018-03-28T07:39:44.628Z,94655.16
2018-03-28T07:42:11.097Z,94643.37
2018-03-28T07:44:37.622Z,94657.80
2018-03-28T07:47:04.594Z,94653.11
2018-03-28T07:49:32.216Z,94656.95
2018-03-28T07:51:58.833Z,94655.78
2018-03-28T07:54:25.684Z,94647.25
2018-03-28T07:56:52.366Z,94656.77
2018-03-28T07:59:19.266Z,94650.87
2018-03-28T08:01:46.656Z,94661.36
2018-03-28T08:04:13.345Z,94654.20
2018-03-28T08:06:40.523Z,94652.78
2018-03-28T08:09:09.943Z,94659.25
2018-03-28T08:11:36.830Z,94660.20
2018-03-28T08:14:04.059Z,94661.73
2018-03-28T08:16:30.972Z,94663.13
2018-03-28T08:18:57.879Z,94661.65
2018-03-28T08:21:24.523Z,94652.44
2018-03-28T08:23:51.365Z,94650.95
2018-03-28T08:26:17.905Z,94662.12
2018-03-28T08:28:44.834Z,94646.02
2018-03-28T08:31:11.402Z,94660.30
2018-03-28T08:33:38.253Z,94649.00
2018-03-28T08:36:04.793Z,94658.43
2018-03-28T08:38:31.558Z,94651.31
2018-03-28T08:40:58.064Z,94652.66
2018-03-28T08:43:26.352Z,94641.95
2018-03-28T08:45:56.719Z,94641.38
2018-03-28T08:48:23.197Z,94639.36
2018-03-28T08:50:49.783Z,94639.09
2018-03-28T08:53:16.186Z,94644.30
2018-03-28T08:55:43.021Z,94640.84
2018-03-28T08:58:09.786Z,94644.55
2018-03-28T09:00:36.194Z,94632.39
2018-03-28T09:03:02.646Z,94630.66
2018-03-28T09:05:30.612Z,94622.55
2018-03-28T09:07:57.299Z,94632.67
2018-03-28T09:10:23.895Z,94624.51
2018-03-28T09:12:50.474Z,94617.45
2018-03-28T09:15:16.945Z,94610.92
2018-03-28T09:17:43.732Z,94623.91
2018-03-28T09:20:10.252Z,94630.59
2018-03-28T09:22:37.071Z,94622.20
2018-03-28T09:25:03.745Z,94620.98
2018-03-28T09:27:30.508Z,94612.34
2018-03-28T09:29:57.202Z,94608.88
2018-03-28T09:32:24.230Z,94614.70
2018-03-28T09:34:51.104Z,94612.94
2018-03-28T09:37:18.049Z,94614.16
2018-03-28T09:39:44.593Z,94611.76
2018-03-28T09:42:11.134Z,94600.94
2018-03-28T09:44:39.352Z,94589.72
2018-03-28T09:47:06.047Z,94591.02
2018-03-28T09:49:32.590Z,94607.05
2018-03-28T09:51:59.266Z,94586.73
2018-03-28T09:54:25.946Z,94590.48
2018-03-28T09:56:52.600Z,94579.14
2018-03-28T09:59:19.948Z,94585.66
2018-03-28T10:01:47.473Z,94584.87
2018-03-28T10:04:13.933Z,94571.28
2018-03-28T10:06:40.803Z,94570.23
2018-03-28T10:09:07.570Z,94581.08
2018-03-28T10:11:34.824Z,94568.80
2018-03-28T10:32:52.260Z,94565.05
2018-03-28T10:35:19.154Z,94565.12
2018-03-28T10:37:46.104Z,94564.05
2018-03-28T11:04:07.984Z,94536.53
2018-03-28T11:06:35.646Z,94541.41
2018-03-28T11:09:02.820Z,94531.84
2018-03-28T11:11:31.261Z,94541.73
2018-03-28T11:13:59.073Z,94531.01
2018-03-28T11:16:26.597Z,94535.60
2018-03-28T11:18:53.997Z,94520.57
2018-03-28T11:21:26.016Z,94526.91
2018-03-28T11:23:55.730Z,94523.75
2018-03-28T11:26:24.728Z,94525.72
2018-03-28T11:28:59.329Z,94528.02
2018-03-28T11:31:26.448Z,94525.36
2018-03-28T11:36:27.726Z,94511.73
2018-03-28T11:38:54.814Z,94515.07
2018-03-28T11:41:23.111Z,94509.73
2018-03-28T11:43:50.565Z,94500.99
2018-03-28T11:46:23.932Z,94509.58
2018-03-28T12:03:40.697Z,94482.87
2018-03-28T12:47:07.554Z,94448.77
2018-03-28T12:49:34.920Z,94458.59
2018-03-28T12:52:02.019Z,94442.23
2018-03-28T12:54:29.922Z,94444.98
2018-03-28T12:56:57.656Z,94446.81
2018-03-28T12:59:25.758Z,94427.00
2018-03-28T13:01:53.052Z,94425.62
2018-03-28T13:04:21.178Z,94438.18
2018-03-28T13:24:31.619Z,94396.69
2018-03-28T13:26:58.921Z,94411.61
2018-03-28T13:29:38.768Z,94418.34
2018-03-28T13:32:08.032Z,94406.14
2018-03-28T13:34:36.696Z,94416.30
2018-03-28T13:37:06.360Z,94410.30
2018-03-28T14:13:51.859Z,94401.44
2018-03-28T14:16:18.491Z,94404.84
2018-03-28T14:18:44.979Z,94404.03
2018-03-28T14:21:11.786Z,94404.31
2018-03-28T14:23:38.813Z,94407.96
2018-03-28T14:26:05.737Z,94404.38
2018-03-28T14:28:32.198Z,94405.03
2018-03-28T14:30:58.539Z,94397.75
2018-03-28T14:33:24.914Z,94415.34
2018-03-28T14:35:51.316Z,94396.28
2018-03-28T14:38:17.668Z,94381.22
2018-03-28T14:40:44.052Z,94393.65
2018-03-28T14:43:10.433Z,94400.39
2018-03-28T14:45:36.813Z,94404.44
2018-03-28T14:48:03.166Z,94401.69
2018-03-28T14:50:29.603Z,94405.73
2018-03-28T14:52:55.958Z,94402.33
2018-03-28T14:55:22.327Z,94409.31
2018-03-28T14:57:48.792Z,94411.31
2018-03-28T15:00:15.137Z,94388.77
2018-03-28T15:02:41.495Z,94415.05
2018-03-28T15:05:07.825Z,94412.66
2018-03-28T15:07:34.229Z,94407.14
2018-03-28T15:10:00.570Z,94398.15
2018-03-28T15:12:26.937Z,94406.11
2018-03-28T15:14:53.337Z,94395.86
2018-03-28T15:17:19.666Z,94408.78
2018-03-28T15:19:46.013Z,94414.83
2018-03-28T15:22:12.477Z,94400.73
2018-03-28T15:24:38.918Z,94420.69
2018-03-28T15:27:06.550Z,94415.85
2018-03-28T15:29:33.207Z,94412.80
2018-03-28T15:31:59.796Z,94408.77
2018-03-28T15:34:27.741Z,94416.51
2018-03-28T15:36:54.190Z,94418.20
2018-03-28T15:39:20.675Z,94408.35
2018-03-28T15:41:47.160Z,94405.70
2018-03-28T15:44:13.576Z,94413.70
2018-03-28T15:46:39.965Z,94415.44
2018-03-28T15:49:06.503Z,94410.75
2018-03-28T15:51:32.940Z,94417.39
2018-03-28T15:53:59.435Z,94422.55
2018-03-28T15:56:25.834Z,94416.83
2018-03-28T15:58:52.461Z,94413.46
2018-03-28T16:01:26.849Z,94417.33
2018-03-28T16:03:53.190Z,94407.86
2018-03-28T16:06:19.574Z,94414.15
2018-03-28T16:08:45.972Z,94409.94
2018-03-28T16:11:12.323Z,94415.44
2018-03-28T16:13:38.707Z,94415.73
2018-03-28T16:16:05.022Z,94413.99
2018-03-28T16:18:31.431Z,94414.87
2018-03-28T16:20:57.740Z,94420.64
2018-03-28T16:23:24.172Z,94423.41
2018-03-28T16:25:50.541Z,94431.22
2018-03-28T16:28:16.960Z,94438.61
2018-03-28T16:30:43.331Z,94434.33
2018-03-28T16:33:10.203Z,94424.45
2018-03-28T16:35:36.607Z,94436.56
2018-03-28T16:38:02.960Z,94436.66
2018-03-28T16:40:29.412Z,94429.13
2018-03-28T16:42:55.851Z,94433.22
2018-03-28T16:45:22.294Z,94432.02
2018-03-28T16:47:48.737Z,94446.13
2018-03-28T16:50:15.143Z,94432.43
2018-03-28T16:52:41.606Z,94439.09
2018-03-28T16:55:08.064Z,94445.45
2018-03-28T16:57:34.429Z,94441.34
2018-03-28T17:00:00.948Z,94444.73
2018-03-28T17:02:27.273Z,94440.25
2018-03-28T17:04:53.600Z,94439.23
2018-03-28T17:07:19.956Z,94448.34
2018-03-28T17:09:46.273Z,94455.39
2018-03-28T17:12:12.719Z,94452.83
2018-03-28T17:14:39.129Z,94445.28
2018-03-28T17:17:05.498Z,94455.88
2018-03-28T17:19:31.913Z,94456.67
2018-03-28T17:21:58.239Z,94446.05
2018-03-28T17:24:24.689Z,94448.39
2018-03-28T17:26:51.046Z,94461.56
2018-03-28T17:29:17.425Z,94463.88
2018-03-28T17:31:43.756Z,94464.55
2018-03-28T17:34:10.172Z,94465.28
2018-03-28T17:36:36.502Z,94472.00
2018-03-28T17:39:02.879Z,94468.83
2018-03-28T17:41:29.206Z,94478.11
2018-03-28T17:43:55.609Z,94490.91
2018-03-28T17:46:21.960Z,94492.14
2018-03-28T17:48:48.330Z,94488.73
2018-03-28T17:51:14.662Z,94496.34
2018-03-28T17:53:41.698Z,94502.03
2018-03-28T17:56:08.151Z,94502.59
2018-03-28T17:58:34.488Z,94508.16
2018-03-28T18:01:00.836Z,94510.59
2018-03-28T18:03:27.191Z,94526.52
2018-03-28T18:05:53.557Z,94528.65
2018-03-28T18:08:19.918Z,94526.51
2018-03-28T18:10:46.450Z,94522.18
2018-03-28T18:13:12.818Z,94521.41
2018-03-28T18:15:39.172Z,94519.73
2018-03-28T18:18:05.599Z,94519.83
2018-03-28T18:20:31.941Z,94523.28
2018-03-28T18:22:58.307Z,94529.00
2018-03-28T18:25:24.657Z,94535.50
2018-03-28T18:27:51.010Z,94535.77
2018-03-28T18:30:17.394Z,94534.58
2018-03-28T18:32:43.790Z,94532.95
2018-03-28T18:35:10.211Z,94540.15
2018-03-28T18:37:36.526Z,94543.45
2018-03-28T18:40:02.893Z,94543.75
2018-03-28T18:42:29.254Z,94551.93
2018-03-28T18:44:55.608Z,94544.00
2018-03-28T18:47:21.983Z,94541.52
2018-03-28T18:49:48.336Z,94545.39
2018-03-28T18:52:14.768Z,94543.39
2018-03-28T18:54:41.106Z,94543.94
2018-03-28T18:57:07.635Z,94549.24
2018-03-28T18:59:34.124Z,94549.91
2018-03-28T19:02:00.460Z,94548.17
2018-03-28T19:04:26.787Z,94559.25
2018-03-28T19:06:53.210Z,94548.48
2018-03-28T19:09:19.552Z,94551.97
2018-03-28T19:11:45.930Z,94558.27
2018-03-28T19:14:12.367Z,94558.41
2018-03-28T19:16:38.748Z,94565.11
2018-03-28T19:19:05.067Z,94557.69
2018-03-28T19:21:31.531Z,94564.03
2018-03-28T19:23:57.970Z,94569.69
2018-03-28T19:26:24.361Z,94570.47
2018-03-28T19:28:50.776Z,94565.05
2018-03-28T19:31:17.237Z,94567.91
2018-03-28T19:33:43.565Z,94556.22
2018-03-28T19:36:09.970Z,94564.92
2018-03-28T19:38:36.358Z,94566.27
2018-03-28T19:41:02.741Z,94555.19
2018-03-28T19:43:29.218Z,94557.70
2018-03-28T19:45:55.612Z,94537.98
2018-03-28T19:48:21.943Z,94555.85
2018-03-28T19:50:48.271Z,94551.99
2018-03-28T19:53:14.824Z,94555.80
2018-03-28T19:55:41.174Z,94537.52
2018-03-28T19:58:07.583Z,94544.02
2018-03-28T20:00:33.942Z,94542.92
2018-03-28T20:03:00.304Z,94550.53
2018-03-28T20:05:27.617Z,94549.30
2018-03-28T20:07:54.117Z,94546.59
2018-03-28T20:10:20.503Z,94543.13
2018-03-28T20:12:46.909Z,94537.47
2018-03-28T20:15:13.290Z,94541.27
2018-03-28T20:17:39.649Z,94536.89
2018-03-28T20:20:06.004Z,94543.32
2018-03-28T20:22:32.321Z,94535.97
2018-03-28T20:24:58.805Z,94535.50
2018-03-28T20:27:25.384Z,94538.02
2018-03-28T20:29:52.020Z,94520.15
2018-03-28T20:32:18.427Z,94538.38
2018-03-28T20:34:44.826Z,94542.03
2018-03-28T20:37:11.950Z,94543.00
2018-03-28T20:39:38.492Z,94545.83
2018-03-28T20:42:04.823Z,94543.83
2018-03-28T20:44:31.264Z,94544.55
2018-03-28T20:46:57.773Z,94547.42
2018-03-28T20:49:24.350Z,94541.05
2018-03-28T20:51:50.757Z,94528.48
2018-03-28T20:54:17.196Z,94538.17
2018-03-28T20:56:43.820Z,94529.20
2018-03-28T21:12:29.504Z,94532.33
2018-03-28T21:14:55.982Z,94526.31
2018-03-28T21:17:22.613Z,94528.56
2018-03-28T21:19:49.058Z,94534.08
2018-03-28T21:22:15.499Z,94520.98
2018-03-28T21:24:41.954Z,94525.31
2018-03-28T21:27:08.340Z,94520.98
2018-03-28T21:29:34.715Z,94517.79
2018-03-28T21:32:01.208Z,94513.98
2018-03-28T21:34:27.675Z,94507.77
2018-03-28T21:36:54.036Z,94513.55
2018-03-28T21:39:20.408Z,94488.47
2018-03-28T21:41:46.766Z,94501.08
2018-03-28T21:44:13.174Z,94502.61
2018-03-28T21:46:39.531Z,94501.08
2018-03-28T21:49:06.036Z,94494.66
2018-03-28T21:51:32.421Z,94504.11
2018-03-28T21:53:58.773Z,94502.83
2018-03-28T21:56:25.230Z,94493.31
2018-03-28T21:58:51.613Z,94498.09
2018-03-28T22:01:17.953Z,94495.91
2018-03-28T22:03:44.349Z,94494.80
2018-03-28T22:06:10.736Z,94495.94
2018-03-28T22:08:37.274Z,94498.51
2018-03-28T22:11:03.699Z,94494.44
2018-03-28T22:13:30.084Z,94488.02
2018-03-28T22:15:56.423Z,94498.59
2018-03-28T22:18:22.797Z,94491.27
2018-03-28T22:20:49.126Z,94496.73
2018-03-28T22:23:15.622Z,94500.86
2018-03-28T22:25:41.916Z,94495.17
2018-03-28T22:28:08.433Z,94496.66
2018-03-28T22:30:34.757Z,94495.97
2018-03-28T22:33:01.945Z,94497.17
2018-03-28T22:35:28.309Z,94495.26
2018-03-28T22:37:55.040Z,94500.73
2018-03-28T22:40:21.393Z,94504.64
2018-03-28T22:42:47.875Z,94496.59
2018-03-28T22:45:14.238Z,94497.91
2018-03-28T22:47:40.808Z,94500.62
2018-03-28T22:50:07.138Z,94498.16
2018-03-28T22:52:33.570Z,94509.61
2018-03-28T22:54:59.942Z,94518.01
2018-03-28T22:57:26.342Z,94506.58
2018-03-28T22:59:52.800Z,94507.29
2018-03-28T23:02:19.358Z,94511.41
2018-03-28T23:04:45.747Z,94506.47
2018-03-28T23:07:12.071Z,94514.13
2018-03-28T23:09:38.476Z,94505.89
2018-03-28T23:12:05.565Z,94504.25
2018-03-28T23:14:31.887Z,94495.39
2018-03-28T23:16:58.456Z,94503.43
2018-03-28T23:19:24.951Z,94503.21
2018-03-28T23:21:51.445Z,94504.98
2018-03-28T23:24:17.775Z,94517.12
2018-03-28T23:26:44.109Z,94539.66
2018-03-28T23:29:10.500Z,94542.16
2018-03-28T23:31:37.102Z,94545.03
2018-03-28T23:34:03.540Z,94536.23
2018-03-28T23:36:29.871Z,94537.33
2018-03-28T23:38:57.018Z,94535.59
2018-03-28T23:41:23.578Z,94530.48
2018-03-28T23:43:49.935Z,94531.05
2018-03-28T23:46:16.374Z,94519.22
2018-03-28T23:48:42.751Z,94538.36
2018-03-28T23:51:09.117Z,94523.80
2018-03-28T23:53:35.443Z,94539.50
2018-03-28T23:56:01.883Z,94523.02
2018-03-28T23:58:28.282Z,94530.53
